首页
METAR-TAF:

METAR-TAF

机场 :

Westerland, 德国

纬度: 54-55N, 经度: 008-21E, 海拔: 16米

当前天气观测

该预报发布于31分钟前的02:20 UTC
风速4节,风向西转西南
温度 10°C
湿度 76%
气压 996 hPa
能见度10公里或以上

METAR: EDXW 260220Z AUTO 25004KT 9999 // BKN170/// 10/06 Q0996

时间: 04:51 (02:51 UTC)

预报

该预报发布于9小时和51分钟前的17:00 UTC
预报有效从25日的 18点(UTC)到 25日的 21点(UTC)
风速4节,风向西南
能见度10公里或以上
1500米以下无云,无积雨云
成为
从 25日的 18点(UTC)到 25日的 20点(UTC)
风速5节,风向西转西北

TAF: EDXW 251700Z 2518/2521 22004KT CAVOK BECMG 2518/2520 29005KT

超过4000个机场的气象观测和天气预报(METAR&TAF报告)。

可查询的气象台以黄色和红色小点在地图上表示。

将鼠标移到小点上方,可查看气象台名称。

然后点击查看天气观测和预报。

如需切换地图:点击带黑十字的绿色按钮放大地图;点击带横线的绿色按钮缩小地图;或者点击绿色箭头查看邻近地区的地图。


METAR-TAF: